sensor_id;sensor_type;location;lat;lon;timestamp;temperature;humidity
8611;DHT22;4343;53.648;10.098;2024-03-08T00:01:52;2.10;99.90
8611;DHT22;4343;53.648;10.098;2024-03-08T00:04:18;2.10;99.90
8611;DHT22;4343;53.648;10.098;2024-03-08T00:06:43;2.10;99.90
8611;DHT22;4343;53.648;10.098;2024-03-08T00:09:11;2.10;99.90
8611;DHT22;4343;53.648;10.098;2024-03-08T00:11:37;2.10;99.90
8611;DHT22;4343;53.648;10.098;2024-03-08T00:14:02;2.10;99.90
8611;DHT22;4343;53.648;10.098;2024-03-08T00:16:32;2.00;99.90
8611;DHT22;4343;53.648;10.098;2024-03-08T00:18:57;2.10;99.90
8611;DHT22;4343;53.648;10.098;2024-03-08T00:21:23;2.10;99.90
8611;DHT22;4343;53.648;10.098;2024-03-08T00:23:48;2.00;99.90
8611;DHT22;4343;53.648;10.098;2024-03-08T00:26:14;2.00;99.90
8611;DHT22;4343;53.648;10.098;2024-03-08T00:28:39;2.00;99.90
8611;DHT22;4343;53.648;10.098;2024-03-08T00:31:05;2.00;99.90
8611;DHT22;4343;53.648;10.098;2024-03-08T00:33:32;2.00;99.90
8611;DHT22;4343;53.648;10.098;2024-03-08T00:35:57;2.00;99.90
8611;DHT22;4343;53.648;10.098;2024-03-08T00:38:23;2.00;99.90
8611;DHT22;4343;53.648;10.098;2024-03-08T00:40:48;1.90;99.90
8611;DHT22;4343;53.648;10.098;2024-03-08T00:43:14;1.90;99.90
8611;DHT22;4343;53.648;10.098;2024-03-08T00:45:41;1.90;99.90
8611;DHT22;4343;53.648;10.098;2024-03-08T00:48:08;1.80;99.90
8611;DHT22;4343;53.648;10.098;2024-03-08T00:50:33;1.80;99.90
8611;DHT22;4343;53.648;10.098;2024-03-08T00:52:59;1.80;99.90
8611;DHT22;4343;53.648;10.098;2024-03-08T00:55:25;1.80;99.90
8611;DHT22;4343;53.648;10.098;2024-03-08T00:57:50;1.80;99.90
8611;DHT22;4343;53.648;10.098;2024-03-08T01:00:16;1.80;99.90
8611;DHT22;4343;53.648;10.098;2024-03-08T01:02:42;1.80;99.90
8611;DHT22;4343;53.648;10.098;2024-03-08T01:05:07;1.70;99.90
8611;DHT22;4343;53.648;10.098;2024-03-08T01:07:33;1.70;99.90
8611;DHT22;4343;53.648;10.098;2024-03-08T01:09:59;1.70;99.90
8611;DHT22;4343;53.648;10.098;2024-03-08T01:12:26;1.60;99.90
8611;DHT22;4343;53.648;10.098;2024-03-08T01:14:51;1.60;99.90
8611;DHT22;4343;53.648;10.098;2024-03-08T01:17:17;1.60;99.90
8611;DHT22;4343;53.648;10.098;2024-03-08T01:19:42;1.60;99.90
8611;DHT22;4343;53.648;10.098;2024-03-08T01:22:10;1.60;99.90
8611;DHT22;4343;53.648;10.098;2024-03-08T01:24:35;1.50;99.90
8611;DHT22;4343;53.648;10.098;2024-03-08T01:27:01;1.50;99.90
8611;DHT22;4343;53.648;10.098;2024-03-08T01:29:27;1.50;99.90
8611;DHT22;4343;53.648;10.098;2024-03-08T01:31:55;1.50;99.90
8611;DHT22;4343;53.648;10.098;2024-03-08T01:34:21;1.50;99.90
8611;DHT22;4343;53.648;10.098;2024-03-08T01:36:48;1.40;99.90
8611;DHT22;4343;53.648;10.098;2024-03-08T01:39:14;1.40;99.90
8611;DHT22;4343;53.648;10.098;2024-03-08T01:41:39;1.40;99.90
8611;DHT22;4343;53.648;10.098;2024-03-08T01:44:05;1.40;99.90
8611;DHT22;4343;53.648;10.098;2024-03-08T01:46:32;1.30;99.90
8611;DHT22;4343;53.648;10.098;2024-03-08T01:48:58;1.30;99.90
8611;DHT22;4343;53.648;10.098;2024-03-08T01:51:26;1.30;99.90
8611;DHT22;4343;53.648;10.098;2024-03-08T01:53:53;1.30;99.90
8611;DHT22;4343;53.648;10.098;2024-03-08T01:56:20;1.30;99.90
8611;DHT22;4343;53.648;10.098;2024-03-08T01:58:46;1.20;99.90
8611;DHT22;4343;53.648;10.098;2024-03-08T02:01:14;1.20;99.90
8611;DHT22;4343;53.648;10.098;2024-03-08T02:03:40;1.20;99.90
8611;DHT22;4343;53.648;10.098;2024-03-08T02:06:06;1.20;99.90
8611;DHT22;4343;53.648;10.098;2024-03-08T02:08:35;1.20;99.90
8611;DHT22;4343;53.648;10.098;2024-03-08T02:11:01;1.10;99.90
8611;DHT22;4343;53.648;10.098;2024-03-08T02:13:27;1.10;99.90
8611;DHT22;4343;53.648;10.098;2024-03-08T02:16:00;1.10;99.90
8611;DHT22;4343;53.648;10.098;2024-03-08T02:18:25;1.10;99.90
8611;DHT22;4343;53.648;10.098;2024-03-08T02:20:58;1.10;99.90
8611;DHT22;4343;53.648;10.098;2024-03-08T02:23:24;1.10;99.90
8611;DHT22;4343;53.648;10.098;2024-03-08T02:25:50;1.00;99.90
8611;DHT22;4343;53.648;10.098;2024-03-08T02:28:16;1.00;99.90
8611;DHT22;4343;53.648;10.098;2024-03-08T02:30:44;1.00;99.90
8611;DHT22;4343;53.648;10.098;2024-03-08T02:33:09;1.00;99.90
8611;DHT22;4343;53.648;10.098;2024-03-08T02:35:35;1.00;99.90
8611;DHT22;4343;53.648;10.098;2024-03-08T02:38:01;1.00;99.90
8611;DHT22;4343;53.648;10.098;2024-03-08T02:40:26;0.90;99.90
8611;DHT22;4343;53.648;10.098;2024-03-08T02:42:52;1.00;99.90
8611;DHT22;4343;53.648;10.098;2024-03-08T02:45:18;0.90;99.90
8611;DHT22;4343;53.648;10.098;2024-03-08T02:47:43;0.90;99.90
8611;DHT22;4343;53.648;10.098;2024-03-08T02:50:09;0.90;99.90
8611;DHT22;4343;53.648;10.098;2024-03-08T02:52:34;0.90;99.90
8611;DHT22;4343;53.648;10.098;2024-03-08T02:55:01;0.90;99.90
8611;DHT22;4343;53.648;10.098;2024-03-08T02:57:26;0.80;99.90
8611;DHT22;4343;53.648;10.098;2024-03-08T02:59:53;0.80;99.90
8611;DHT22;4343;53.648;10.098;2024-03-08T03:02:18;0.80;99.90
8611;DHT22;4343;53.648;10.098;2024-03-08T03:04:44;0.80;99.90
8611;DHT22;4343;53.648;10.098;2024-03-08T03:07:09;0.80;99.90
8611;DHT22;4343;53.648;10.098;2024-03-08T03:09:36;0.70;99.90
8611;DHT22;4343;53.648;10.098;2024-03-08T03:12:02;0.70;99.90
8611;DHT22;4343;53.648;10.098;2024-03-08T03:14:27;0.70;99.90
8611;DHT22;4343;53.648;10.098;2024-03-08T03:16:53;0.70;99.90
8611;DHT22;4343;53.648;10.098;2024-03-08T03:19:19;0.70;99.90
8611;DHT22;4343;53.648;10.098;2024-03-08T03:21:45;0.60;99.90
8611;DHT22;4343;53.648;10.098;2024-03-08T03:24:11;0.70;99.90
8611;DHT22;4343;53.648;10.098;2024-03-08T03:26:37;0.60;99.90
8611;DHT22;4343;53.648;10.098;2024-03-08T03:29:07;0.60;99.90
8611;DHT22;4343;53.648;10.098;2024-03-08T03:31:34;0.60;99.90
8611;DHT22;4343;53.648;10.098;2024-03-08T03:33:59;0.60;99.90
8611;DHT22;4343;53.648;10.098;2024-03-08T03:36:28;0.60;99.90
8611;DHT22;4343;53.648;10.098;2024-03-08T03:38:53;0.60;99.90
8611;DHT22;4343;53.648;10.098;2024-03-08T03:41:30;0.60;99.90
8611;DHT22;4343;53.648;10.098;2024-03-08T03:43:55;0.60;99.90
8611;DHT22;4343;53.648;10.098;2024-03-08T03:46:20;0.50;99.90
8611;DHT22;4343;53.648;10.098;2024-03-08T03:48:46;0.50;99.90
8611;DHT22;4343;53.648;10.098;2024-03-08T03:51:11;0.50;99.90
8611;DHT22;4343;53.648;10.098;2024-03-08T03:53:37;0.50;99.90
8611;DHT22;4343;53.648;10.098;2024-03-08T03:56:02;0.50;99.90
8611;DHT22;4343;53.648;10.098;2024-03-08T03:58:32;0.50;99.90
8611;DHT22;4343;53.648;10.098;2024-03-08T04:00:57;0.50;99.90
8611;DHT22;4343;53.648;10.098;2024-03-08T04:03:23;0.50;99.90
8611;DHT22;4343;53.648;10.098;2024-03-08T04:05:49;0.50;99.90
8611;DHT22;4343;53.648;10.098;2024-03-08T04:08:14;0.50;99.90
8611;DHT22;4343;53.648;10.098;2024-03-08T04:10:40;0.50;99.90
8611;DHT22;4343;53.648;10.098;2024-03-08T04:13:07;0.50;99.90
8611;DHT22;4343;53.648;10.098;2024-03-08T04:15:32;0.50;99.90
8611;DHT22;4343;53.648;10.098;2024-03-08T04:17:58;0.40;99.90
8611;DHT22;4343;53.648;10.098;2024-03-08T04:20:25;0.40;99.90
8611;DHT22;4343;53.648;10.098;2024-03-08T04:22:51;0.40;99.90
8611;DHT22;4343;53.648;10.098;2024-03-08T04:25:16;0.40;99.90
8611;DHT22;4343;53.648;10.098;2024-03-08T04:27:42;0.40;99.90
8611;DHT22;4343;53.648;10.098;2024-03-08T04:30:07;0.40;99.90
8611;DHT22;4343;53.648;10.098;2024-03-08T04:32:33;0.40;99.90
8611;DHT22;4343;53.648;10.098;2024-03-08T04:34:59;0.40;99.90
8611;DHT22;4343;53.648;10.098;2024-03-08T04:37:26;0.40;99.90
8611;DHT22;4343;53.648;10.098;2024-03-08T04:39:51;0.40;99.90
8611;DHT22;4343;53.648;10.098;2024-03-08T04:42:17;0.40;99.90
8611;DHT22;4343;53.648;10.098;2024-03-08T04:44:43;0.40;99.90
8611;DHT22;4343;53.648;10.098;2024-03-08T04:47:08;0.40;99.90
8611;DHT22;4343;53.648;10.098;2024-03-08T04:49:35;0.40;99.90
8611;DHT22;4343;53.648;10.098;2024-03-08T04:52:03;0.40;99.90
8611;DHT22;4343;53.648;10.098;2024-03-08T04:54:32;0.30;99.90
8611;DHT22;4343;53.648;10.098;2024-03-08T04:56:58;0.30;99.90
8611;DHT22;4343;53.648;10.098;2024-03-08T04:59:25;0.40;99.90
8611;DHT22;4343;53.648;10.098;2024-03-08T05:01:51;0.30;99.90
8611;DHT22;4343;53.648;10.098;2024-03-08T05:04:17;0.30;99.90
8611;DHT22;4343;53.648;10.098;2024-03-08T05:06:42;0.30;99.90
8611;DHT22;4343;53.648;10.098;2024-03-08T05:09:08;0.30;99.90
8611;DHT22;4343;53.648;10.098;2024-03-08T05:11:40;0.30;99.90
8611;DHT22;4343;53.648;10.098;2024-03-08T05:14:06;0.30;99.90
8611;DHT22;4343;53.648;10.098;2024-03-08T05:16:31;0.30;99.90
8611;DHT22;4343;53.648;10.098;2024-03-08T05:18:57;0.30;99.90
8611;DHT22;4343;53.648;10.098;2024-03-08T05:21:22;0.30;99.90
8611;DHT22;4343;53.648;10.098;2024-03-08T05:23:48;0.30;99.90
8611;DHT22;4343;53.648;10.098;2024-03-08T05:26:15;0.30;99.90
8611;DHT22;4343;53.648;10.098;2024-03-08T05:28:41;0.30;99.90
8611;DHT22;4343;53.648;10.098;2024-03-08T05:31:06;0.30;99.90
8611;DHT22;4343;53.648;10.098;2024-03-08T05:33:32;0.20;99.90
8611;DHT22;4343;53.648;10.098;2024-03-08T05:36:00;0.20;99.90
8611;DHT22;4343;53.648;10.098;2024-03-08T05:38:27;0.20;99.90
8611;DHT22;4343;53.648;10.098;2024-03-08T05:40:52;0.20;99.90
8611;DHT22;4343;53.648;10.098;2024-03-08T05:43:18;0.20;99.90
8611;DHT22;4343;53.648;10.098;2024-03-08T05:45:45;0.20;99.90
8611;DHT22;4343;53.648;10.098;2024-03-08T05:48:10;0.20;99.90
8611;DHT22;4343;53.648;10.098;2024-03-08T05:50:38;0.20;99.90
8611;DHT22;4343;53.648;10.098;2024-03-08T05:53:04;0.20;99.90
8611;DHT22;4343;53.648;10.098;2024-03-08T05:55:32;0.20;99.90
8611;DHT22;4343;53.648;10.098;2024-03-08T05:58:03;0.20;99.90
8611;DHT22;4343;53.648;10.098;2024-03-08T06:00:28;0.20;99.90
8611;DHT22;4343;53.648;10.098;2024-03-08T06:02:56;0.20;99.90
8611;DHT22;4343;53.648;10.098;2024-03-08T06:05:22;0.20;99.90
8611;DHT22;4343;53.648;10.098;2024-03-08T06:07:50;0.20;99.90
8611;DHT22;4343;53.648;10.098;2024-03-08T06:10:18;0.20;99.90
8611;DHT22;4343;53.648;10.098;2024-03-08T06:12:44;0.20;99.90
8611;DHT22;4343;53.648;10.098;2024-03-08T06:15:10;0.20;99.90
8611;DHT22;4343;53.648;10.098;2024-03-08T06:17:39;0.10;99.90
8611;DHT22;4343;53.648;10.098;2024-03-08T06:20:05;0.10;99.90
8611;DHT22;4343;53.648;10.098;2024-03-08T06:22:38;0.10;99.90
8611;DHT22;4343;53.648;10.098;2024-03-08T06:25:09;0.20;99.90
8611;DHT22;4343;53.648;10.098;2024-03-08T06:27:39;0.20;99.90
8611;DHT22;4343;53.648;10.098;2024-03-08T06:30:06;0.20;99.90
8611;DHT22;4343;53.648;10.098;2024-03-08T06:32:32;0.20;99.90
8611;DHT22;4343;53.648;10.098;2024-03-08T06:35:03;0.20;99.90
8611;DHT22;4343;53.648;10.098;2024-03-08T06:40:30;0.20;99.90
8611;DHT22;4343;53.648;10.098;2024-03-08T06:42:56;0.20;99.90
8611;DHT22;4343;53.648;10.098;2024-03-08T06:45:21;0.20;99.90
8611;DHT22;4343;53.648;10.098;2024-03-08T06:47:48;0.30;99.90
8611;DHT22;4343;53.648;10.098;2024-03-08T06:50:14;0.30;99.90
8611;DHT22;4343;53.648;10.098;2024-03-08T06:52:40;0.30;99.90
8611;DHT22;4343;53.648;10.098;2024-03-08T06:55:07;0.30;99.90
8611;DHT22;4343;53.648;10.098;2024-03-08T06:57:34;0.40;99.90
8611;DHT22;4343;53.648;10.098;2024-03-08T06:59:59;0.40;99.90
8611;DHT22;4343;53.648;10.098;2024-03-08T07:02:25;0.40;99.90
8611;DHT22;4343;53.648;10.098;2024-03-08T07:04:51;0.40;99.90
8611;DHT22;4343;53.648;10.098;2024-03-08T07:07:16;0.50;99.90
8611;DHT22;4343;53.648;10.098;2024-03-08T07:09:45;0.50;99.90
8611;DHT22;4343;53.648;10.098;2024-03-08T07:12:11;0.60;99.90
8611;DHT22;4343;53.648;10.098;2024-03-08T07:14:38;0.60;99.90
8611;DHT22;4343;53.648;10.098;2024-03-08T07:17:07;0.70;99.90
8611;DHT22;4343;53.648;10.098;2024-03-08T07:19:34;0.70;99.90
8611;DHT22;4343;53.648;10.098;2024-03-08T07:21:59;0.80;99.90
8611;DHT22;4343;53.648;10.098;2024-03-08T07:24:25;0.90;99.90
8611;DHT22;4343;53.648;10.098;2024-03-08T07:27:09;1.00;99.90
8611;DHT22;4343;53.648;10.098;2024-03-08T07:29:35;1.10;99.90
8611;DHT22;4343;53.648;10.098;2024-03-08T07:32:00;1.20;99.90
8611;DHT22;4343;53.648;10.098;2024-03-08T07:34:26;1.30;99.90
8611;DHT22;4343;53.648;10.098;2024-03-08T07:36:51;1.30;99.90
8611;DHT22;4343;53.648;10.098;2024-03-08T07:39:17;1.50;99.90
8611;DHT22;4343;53.648;10.098;2024-03-08T07:41:42;1.60;99.90
8611;DHT22;4343;53.648;10.098;2024-03-08T07:44:08;1.70;99.90
8611;DHT22;4343;53.648;10.098;2024-03-08T07:46:34;1.80;99.90
8611;DHT22;4343;53.648;10.098;2024-03-08T07:49:00;1.90;99.90
8611;DHT22;4343;53.648;10.098;2024-03-08T07:51:25;2.00;99.90
8611;DHT22;4343;53.648;10.098;2024-03-08T07:53:51;2.10;99.90
8611;DHT22;4343;53.648;10.098;2024-03-08T07:56:16;2.20;99.90
8611;DHT22;4343;53.648;10.098;2024-03-08T07:58:44;2.30;99.90
8611;DHT22;4343;53.648;10.098;2024-03-08T08:01:18;2.40;99.90
8611;DHT22;4343;53.648;10.098;2024-03-08T08:03:44;2.60;99.90
8611;DHT22;4343;53.648;10.098;2024-03-08T08:06:10;2.60;99.90
8611;DHT22;4343;53.648;10.098;2024-03-08T08:08:44;2.70;99.90
8611;DHT22;4343;53.648;10.098;2024-03-08T08:11:09;2.80;99.90
8611;DHT22;4343;53.648;10.098;2024-03-08T08:13:36;3.00;99.90
8611;DHT22;4343;53.648;10.098;2024-03-08T08:16:05;3.00;99.90
8611;DHT22;4343;53.648;10.098;2024-03-08T08:18:31;3.10;99.90
8611;DHT22;4343;53.648;10.098;2024-03-08T08:20:58;3.20;99.90
8611;DHT22;4343;53.648;10.098;2024-03-08T08:23:25;3.30;99.90
8611;DHT22;4343;53.648;10.098;2024-03-08T08:25:51;3.40;99.90
8611;DHT22;4343;53.648;10.098;2024-03-08T08:28:16;3.40;99.90
8611;DHT22;4343;53.648;10.098;2024-03-08T08:30:43;3.50;99.90
8611;DHT22;4343;53.648;10.098;2024-03-08T08:33:08;3.60;99.90
8611;DHT22;4343;53.648;10.098;2024-03-08T08:35:34;3.70;99.90
8611;DHT22;4343;53.648;10.098;2024-03-08T08:37:59;3.80;99.90
8611;DHT22;4343;53.648;10.098;2024-03-08T08:40:25;3.80;99.90
8611;DHT22;4343;53.648;10.098;2024-03-08T08:42:51;4.00;99.90
8611;DHT22;4343;53.648;10.098;2024-03-08T08:45:18;4.10;99.90
8611;DHT22;4343;53.648;10.098;2024-03-08T08:47:46;4.20;99.90
8611;DHT22;4343;53.648;10.098;2024-03-08T08:50:12;4.20;99.90
8611;DHT22;4343;53.648;10.098;2024-03-08T08:52:38;4.40;99.90
8611;DHT22;4343;53.648;10.098;2024-03-08T08:55:04;4.50;99.90
8611;DHT22;4343;53.648;10.098;2024-03-08T08:57:31;4.50;99.90
8611;DHT22;4343;53.648;10.098;2024-03-08T08:59:58;4.60;99.90
8611;DHT22;4343;53.648;10.098;2024-03-08T09:02:24;4.70;99.90
8611;DHT22;4343;53.648;10.098;2024-03-08T09:04:51;4.80;99.90
8611;DHT22;4343;53.648;10.098;2024-03-08T09:07:16;4.90;99.90
8611;DHT22;4343;53.648;10.098;2024-03-08T09:09:44;5.00;99.90
8611;DHT22;4343;53.648;10.098;2024-03-08T09:12:09;5.10;99.90
8611;DHT22;4343;53.648;10.098;2024-03-08T09:14:41;5.20;99.90
8611;DHT22;4343;53.648;10.098;2024-03-08T09:17:07;5.30;99.90
8611;DHT22;4343;53.648;10.098;2024-03-08T09:19:34;5.40;99.90
8611;DHT22;4343;53.648;10.098;2024-03-08T09:21:59;5.50;99.90
8611;DHT22;4343;53.648;10.098;2024-03-08T09:24:25;5.60;99.90
8611;DHT22;4343;53.648;10.098;2024-03-08T09:26:51;5.70;99.90
8611;DHT22;4343;53.648;10.098;2024-03-08T09:29:17;5.80;99.90
8611;DHT22;4343;53.648;10.098;2024-03-08T09:31:42;5.90;99.90
8611;DHT22;4343;53.648;10.098;2024-03-08T09:34:08;5.90;99.90
8611;DHT22;4343;53.648;10.098;2024-03-08T09:36:34;6.00;99.90
8611;DHT22;4343;53.648;10.098;2024-03-08T09:38:59;6.00;99.90
8611;DHT22;4343;53.648;10.098;2024-03-08T09:41:26;6.10;99.90
8611;DHT22;4343;53.648;10.098;2024-03-08T09:43:51;6.10;99.90
8611;DHT22;4343;53.648;10.098;2024-03-08T09:46:18;6.20;99.90
8611;DHT22;4343;53.648;10.098;2024-03-08T09:48:44;6.30;99.90
8611;DHT22;4343;53.648;10.098;2024-03-08T09:51:12;6.30;99.90
8611;DHT22;4343;53.648;10.098;2024-03-08T09:53:40;6.40;99.90
8611;DHT22;4343;53.648;10.098;2024-03-08T09:56:07;6.50;99.90
8611;DHT22;4343;53.648;10.098;2024-03-08T09:58:33;6.60;99.90
8611;DHT22;4343;53.648;10.098;2024-03-08T10:00:59;6.70;99.90
8611;DHT22;4343;53.648;10.098;2024-03-08T10:03:27;6.70;99.90
8611;DHT22;4343;53.648;10.098;2024-03-08T10:05:52;6.80;99.90
8611;DHT22;4343;53.648;10.098;2024-03-08T10:08:21;6.90;99.90
8611;DHT22;4343;53.648;10.098;2024-03-08T10:10:47;6.90;99.90
8611;DHT22;4343;53.648;10.098;2024-03-08T10:13:12;7.00;99.90
8611;DHT22;4343;53.648;10.098;2024-03-08T10:15:39;7.10;99.90
8611;DHT22;4343;53.648;10.098;2024-03-08T10:18:05;7.10;99.90
8611;DHT22;4343;53.648;10.098;2024-03-08T10:20:31;7.20;99.90
8611;DHT22;4343;53.648;10.098;2024-03-08T10:23:02;7.20;99.90
8611;DHT22;4343;53.648;10.098;2024-03-08T10:25:32;7.40;99.90
8611;DHT22;4343;53.648;10.098;2024-03-08T10:27:58;7.40;99.90
8611;DHT22;4343;53.648;10.098;2024-03-08T10:30:23;7.60;99.90
8611;DHT22;4343;53.648;10.098;2024-03-08T10:32:49;7.70;99.90
8611;DHT22;4343;53.648;10.098;2024-03-08T10:35:14;7.70;99.90
8611;DHT22;4343;53.648;10.098;2024-03-08T10:40:07;7.80;99.90
8611;DHT22;4343;53.648;10.098;2024-03-08T10:42:44;7.90;99.90
8611;DHT22;4343;53.648;10.098;2024-03-08T10:45:26;8.00;99.90
8611;DHT22;4343;53.648;10.098;2024-03-08T10:50:41;8.10;99.90
8611;DHT22;4343;53.648;10.098;2024-03-08T10:53:07;8.10;99.90
8611;DHT22;4343;53.648;10.098;2024-03-08T10:55:34;8.20;99.90
8611;DHT22;4343;53.648;10.098;2024-03-08T10:58:02;8.20;99.90
8611;DHT22;4343;53.648;10.098;2024-03-08T11:00:27;8.30;99.90
8611;DHT22;4343;53.648;10.098;2024-03-08T11:02:56;8.40;99.90
8611;DHT22;4343;53.648;10.098;2024-03-08T11:08:18;8.50;99.90
8611;DHT22;4343;53.648;10.098;2024-03-08T11:10:50;8.50;99.90
8611;DHT22;4343;53.648;10.098;2024-03-08T11:13:36;8.60;99.90
8611;DHT22;4343;53.648;10.098;2024-03-08T11:16:02;8.70;99.90
8611;DHT22;4343;53.648;10.098;2024-03-08T11:18:34;8.70;99.90
8611;DHT22;4343;53.648;10.098;2024-03-08T11:21:03;8.80;99.90
8611;DHT22;4343;53.648;10.098;2024-03-08T11:23:32;8.80;99.90
8611;DHT22;4343;53.648;10.098;2024-03-08T11:25:59;8.90;99.90
8611;DHT22;4343;53.648;10.098;2024-03-08T11:28:24;9.00;99.90
8611;DHT22;4343;53.648;10.098;2024-03-08T11:33:24;9.10;99.90
8611;DHT22;4343;53.648;10.098;2024-03-08T11:35:50;9.20;99.90
8611;DHT22;4343;53.648;10.098;2024-03-08T11:38:16;9.30;99.90
8611;DHT22;4343;53.648;10.098;2024-03-08T11:40:42;9.40;99.90
8611;DHT22;4343;53.648;10.098;2024-03-08T11:43:08;9.50;99.90
8611;DHT22;4343;53.648;10.098;2024-03-08T11:45:36;9.60;99.90
8611;DHT22;4343;53.648;10.098;2024-03-08T11:48:04;9.70;99.90
8611;DHT22;4343;53.648;10.098;2024-03-08T11:50:30;9.80;99.90
8611;DHT22;4343;53.648;10.098;2024-03-08T11:53:05;9.90;99.90
8611;DHT22;4343;53.648;10.098;2024-03-08T11:55:31;10.00;99.90
8611;DHT22;4343;53.648;10.098;2024-03-08T11:58:02;10.10;99.90
8611;DHT22;4343;53.648;10.098;2024-03-08T12:00:28;10.20;99.90
8611;DHT22;4343;53.648;10.098;2024-03-08T12:03:09;10.20;99.90
8611;DHT22;4343;53.648;10.098;2024-03-08T12:05:35;10.40;99.90
8611;DHT22;4343;53.648;10.098;2024-03-08T12:08:01;10.50;99.90
8611;DHT22;4343;53.648;10.098;2024-03-08T12:10:27;10.60;99.90
8611;DHT22;4343;53.648;10.098;2024-03-08T12:12:54;10.70;99.90
8611;DHT22;4343;53.648;10.098;2024-03-08T12:15:20;10.80;99.90
8611;DHT22;4343;53.648;10.098;2024-03-08T12:17:47;11.00;99.90
8611;DHT22;4343;53.648;10.098;2024-03-08T12:20:20;11.20;99.90
8611;DHT22;4343;53.648;10.098;2024-03-08T12:22:50;11.30;99.90
8611;DHT22;4343;53.648;10.098;2024-03-08T12:25:18;11.40;99.90
8611;DHT22;4343;53.648;10.098;2024-03-08T12:27:44;11.60;99.90
8611;DHT22;4343;53.648;10.098;2024-03-08T12:30:19;11.70;99.90
8611;DHT22;4343;53.648;10.098;2024-03-08T12:33:07;11.80;99.90
8611;DHT22;4343;53.648;10.098;2024-03-08T12:35:35;11.90;99.90
8611;DHT22;4343;53.648;10.098;2024-03-08T12:38:02;12.00;99.90
8611;DHT22;4343;53.648;10.098;2024-03-08T12:40:28;12.20;99.90
8611;DHT22;4343;53.648;10.098;2024-03-08T12:42:54;12.30;99.90
8611;DHT22;4343;53.648;10.098;2024-03-08T12:45:20;12.40;99.90
8611;DHT22;4343;53.648;10.098;2024-03-08T12:47:47;12.50;99.90
8611;DHT22;4343;53.648;10.098;2024-03-08T12:50:13;12.50;99.90
8611;DHT22;4343;53.648;10.098;2024-03-08T12:52:38;12.60;99.90
8611;DHT22;4343;53.648;10.098;2024-03-08T12:55:04;12.60;99.90
8611;DHT22;4343;53.648;10.098;2024-03-08T12:57:32;12.70;99.90
8611;DHT22;4343;53.648;10.098;2024-03-08T12:59:59;12.80;99.90
8611;DHT22;4343;53.648;10.098;2024-03-08T13:02:24;12.80;99.90
8611;DHT22;4343;53.648;10.098;2024-03-08T13:04:51;12.90;99.90
8611;DHT22;4343;53.648;10.098;2024-03-08T13:07:23;13.00;99.90
8611;DHT22;4343;53.648;10.098;2024-03-08T13:09:54;13.00;99.90
8611;DHT22;4343;53.648;10.098;2024-03-08T13:12:20;13.10;99.90
8611;DHT22;4343;53.648;10.098;2024-03-08T13:14:46;13.30;99.90
8611;DHT22;4343;53.648;10.098;2024-03-08T13:17:14;13.30;99.90
8611;DHT22;4343;53.648;10.098;2024-03-08T13:19:40;13.40;99.90
8611;DHT22;4343;53.648;10.098;2024-03-08T13:22:07;13.50;99.90
8611;DHT22;4343;53.648;10.098;2024-03-08T13:24:34;13.60;99.90
8611;DHT22;4343;53.648;10.098;2024-03-08T13:27:00;13.70;99.90
8611;DHT22;4343;53.648;10.098;2024-03-08T13:29:25;13.80;99.90
8611;DHT22;4343;53.648;10.098;2024-03-08T13:31:51;13.90;99.90
8611;DHT22;4343;53.648;10.098;2024-03-08T13:34:18;14.00;99.90
8611;DHT22;4343;53.648;10.098;2024-03-08T13:36:44;14.00;99.90
8611;DHT22;4343;53.648;10.098;2024-03-08T13:39:11;14.00;99.90
8611;DHT22;4343;53.648;10.098;2024-03-08T13:41:46;14.10;99.90
8611;DHT22;4343;53.648;10.098;2024-03-08T13:44:11;14.20;99.90
8611;DHT22;4343;53.648;10.098;2024-03-08T13:46:37;14.30;99.90
8611;DHT22;4343;53.648;10.098;2024-03-08T13:49:04;14.30;99.90
8611;DHT22;4343;53.648;10.098;2024-03-08T13:51:33;14.40;99.90
8611;DHT22;4343;53.648;10.098;2024-03-08T13:53:59;14.40;99.90
8611;DHT22;4343;53.648;10.098;2024-03-08T13:56:26;14.50;99.90
8611;DHT22;4343;53.648;10.098;2024-03-08T13:58:51;14.50;99.90
8611;DHT22;4343;53.648;10.098;2024-03-08T14:01:17;14.50;99.90
8611;DHT22;4343;53.648;10.098;2024-03-08T14:03:42;14.50;99.90
8611;DHT22;4343;53.648;10.098;2024-03-08T14:06:08;14.50;99.90
8611;DHT22;4343;53.648;10.098;2024-03-08T14:08:35;14.50;99.90
8611;DHT22;4343;53.648;10.098;2024-03-08T14:11:03;14.50;99.90
8611;DHT22;4343;53.648;10.098;2024-03-08T14:13:40;14.50;99.90
8611;DHT22;4343;53.648;10.098;2024-03-08T14:16:06;14.60;99.90
8611;DHT22;4343;53.648;10.098;2024-03-08T14:18:35;14.60;99.90
8611;DHT22;4343;53.648;10.098;2024-03-08T14:21:01;14.60;99.70
8611;DHT22;4343;53.648;10.098;2024-03-08T14:23:26;14.60;99.90
8611;DHT22;4343;53.648;10.098;2024-03-08T14:25:52;14.60;99.80
8611;DHT22;4343;53.648;10.098;2024-03-08T14:28:17;14.60;99.80
8611;DHT22;4343;53.648;10.098;2024-03-08T14:30:44;14.60;99.70
8611;DHT22;4343;53.648;10.098;2024-03-08T14:33:09;14.60;99.70
8611;DHT22;4343;53.648;10.098;2024-03-08T14:35:35;14.70;99.30
8611;DHT22;4343;53.648;10.098;2024-03-08T14:38:02;14.60;99.50
8611;DHT22;4343;53.648;10.098;2024-03-08T14:40:27;14.60;99.40
8611;DHT22;4343;53.648;10.098;2024-03-08T14:42:55;14.70;99.20
8611;DHT22;4343;53.648;10.098;2024-03-08T14:45:21;14.60;98.90
8611;DHT22;4343;53.648;10.098;2024-03-08T14:47:49;14.70;98.90
8611;DHT22;4343;53.648;10.098;2024-03-08T14:50:18;14.70;98.70
8611;DHT22;4343;53.648;10.098;2024-03-08T14:52:44;14.60;98.60
8611;DHT22;4343;53.648;10.098;2024-03-08T14:55:09;14.50;98.70
8611;DHT22;4343;53.648;10.098;2024-03-08T14:57:39;14.40;98.00
8611;DHT22;4343;53.648;10.098;2024-03-08T15:00:05;14.30;97.90
8611;DHT22;4343;53.648;10.098;2024-03-08T15:02:32;14.20;97.90
8611;DHT22;4343;53.648;10.098;2024-03-08T15:05:04;14.00;98.10
8611;DHT22;4343;53.648;10.098;2024-03-08T15:07:34;13.90;98.00
8611;DHT22;4343;53.648;10.098;2024-03-08T15:10:00;13.80;98.60
8611;DHT22;4343;53.648;10.098;2024-03-08T15:12:25;13.70;98.10
8611;DHT22;4343;53.648;10.098;2024-03-08T15:14:54;13.60;98.50
8611;DHT22;4343;53.648;10.098;2024-03-08T15:17:21;13.50;98.30
8611;DHT22;4343;53.648;10.098;2024-03-08T15:19:49;13.30;98.50
8611;DHT22;4343;53.648;10.098;2024-03-08T15:22:15;13.20;98.70
8611;DHT22;4343;53.648;10.098;2024-03-08T15:24:43;13.10;98.00
8611;DHT22;4343;53.648;10.098;2024-03-08T15:27:09;13.00;98.80
8611;DHT22;4343;53.648;10.098;2024-03-08T15:29:34;12.90;98.90
8611;DHT22;4343;53.648;10.098;2024-03-08T15:32:01;12.80;99.10
8611;DHT22;4343;53.648;10.098;2024-03-08T15:34:26;12.70;99.50
8611;DHT22;4343;53.648;10.098;2024-03-08T15:36:52;12.60;99.20
8611;DHT22;4343;53.648;10.098;2024-03-08T15:39:18;12.50;98.70
8611;DHT22;4343;53.648;10.098;2024-03-08T15:41:48;12.40;99.20
8611;DHT22;4343;53.648;10.098;2024-03-08T15:44:13;12.20;99.50
8611;DHT22;4343;53.648;10.098;2024-03-08T15:46:39;12.10;99.50
8611;DHT22;4343;53.648;10.098;2024-03-08T15:49:08;12.00;99.80
8611;DHT22;4343;53.648;10.098;2024-03-08T15:51:34;12.00;99.90
8611;DHT22;4343;53.648;10.098;2024-03-08T15:54:02;11.90;99.60
8611;DHT22;4343;53.648;10.098;2024-03-08T15:56:29;11.70;99.40
8611;DHT22;4343;53.648;10.098;2024-03-08T15:58:57;11.60;99.60
8611;DHT22;4343;53.648;10.098;2024-03-08T16:01:22;11.50;99.80
8611;DHT22;4343;53.648;10.098;2024-03-08T16:03:48;11.40;99.90
8611;DHT22;4343;53.648;10.098;2024-03-08T16:06:15;11.30;99.90
8611;DHT22;4343;53.648;10.098;2024-03-08T16:08:41;11.20;99.90